sensor_id;sensor_type;location;lat;lon;timestamp;temperature;humidity
46816;DHT22;32787;53.316;8.670;2022-12-29T00:01:35;9.40;91.60
46816;DHT22;32787;53.316;8.670;2022-12-29T00:04:01;9.40;91.50
46816;DHT22;32787;53.316;8.670;2022-12-29T00:06:27;9.40;91.50
46816;DHT22;32787;53.316;8.670;2022-12-29T00:08:53;9.40;91.60
46816;DHT22;32787;53.316;8.670;2022-12-29T00:11:21;9.50;91.60
46816;DHT22;32787;53.316;8.670;2022-12-29T00:13:47;9.40;91.30
46816;DHT22;32787;53.316;8.670;2022-12-29T00:16:32;9.40;91.40
46816;DHT22;32787;53.316;8.670;2022-12-29T00:18:58;9.40;91.60
46816;DHT22;32787;53.316;8.670;2022-12-29T00:21:24;9.30;91.60
46816;DHT22;32787;53.316;8.670;2022-12-29T00:24:19;9.40;91.70
46816;DHT22;32787;53.316;8.670;2022-12-29T00:26:58;9.40;91.30
46816;DHT22;32787;53.316;8.670;2022-12-29T00:29:51;9.60;91.30
46816;DHT22;32787;53.316;8.670;2022-12-29T00:32:35;9.60;91.20
46816;DHT22;32787;53.316;8.670;2022-12-29T00:35:29;9.50;91.30
46816;DHT22;32787;53.316;8.670;2022-12-29T00:37:57;9.60;91.20
46816;DHT22;32787;53.316;8.670;2022-12-29T00:40:43;9.60;91.00
46816;DHT22;32787;53.316;8.670;2022-12-29T00:43:26;9.70;91.20
46816;DHT22;32787;53.316;8.670;2022-12-29T00:46:11;9.60;91.50
46816;DHT22;32787;53.316;8.670;2022-12-29T00:48:36;9.60;91.50
46816;DHT22;32787;53.316;8.670;2022-12-29T00:51:21;9.60;91.80
46816;DHT22;32787;53.316;8.670;2022-12-29T00:53:46;9.60;91.90
46816;DHT22;32787;53.316;8.670;2022-12-29T00:56:12;9.60;91.90
46816;DHT22;32787;53.316;8.670;2022-12-29T00:58:37;9.60;92.00
46816;DHT22;32787;53.316;8.670;2022-12-29T01:01:05;9.50;92.00
46816;DHT22;32787;53.316;8.670;2022-12-29T01:03:32;9.60;92.10
46816;DHT22;32787;53.316;8.670;2022-12-29T01:06:03;9.60;92.10
46816;DHT22;32787;53.316;8.670;2022-12-29T01:08:29;9.60;92.00
46816;DHT22;32787;53.316;8.670;2022-12-29T01:11:13;9.60;92.10
46816;DHT22;32787;53.316;8.670;2022-12-29T01:13:39;9.70;92.00
46816;DHT22;32787;53.316;8.670;2022-12-29T01:16:06;9.70;92.00
46816;DHT22;32787;53.316;8.670;2022-12-29T01:18:32;9.70;91.90
46816;DHT22;32787;53.316;8.670;2022-12-29T01:21:03;9.80;91.90
46816;DHT22;32787;53.316;8.670;2022-12-29T01:23:29;9.80;91.70
46816;DHT22;32787;53.316;8.670;2022-12-29T01:25:55;9.80;91.70
46816;DHT22;32787;53.316;8.670;2022-12-29T01:28:21;9.80;91.70
46816;DHT22;32787;53.316;8.670;2022-12-29T01:30:47;9.90;91.70
46816;DHT22;32787;53.316;8.670;2022-12-29T01:33:12;9.80;91.80
46816;DHT22;32787;53.316;8.670;2022-12-29T01:35:38;9.90;91.60
46816;DHT22;32787;53.316;8.670;2022-12-29T01:38:03;9.80;91.50
46816;DHT22;32787;53.316;8.670;2022-12-29T01:40:29;9.80;91.70
46816;DHT22;32787;53.316;8.670;2022-12-29T01:42:55;9.80;91.70
46816;DHT22;32787;53.316;8.670;2022-12-29T01:45:20;9.90;91.50
46816;DHT22;32787;53.316;8.670;2022-12-29T01:47:56;9.80;91.50
46816;DHT22;32787;53.316;8.670;2022-12-29T01:52:56;9.90;91.40
46816;DHT22;32787;53.316;8.670;2022-12-29T01:55:23;9.90;91.60
46816;DHT22;32787;53.316;8.670;2022-12-29T01:57:52;9.90;91.60
46816;DHT22;32787;53.316;8.670;2022-12-29T02:00:18;9.80;91.80
46816;DHT22;32787;53.316;8.670;2022-12-29T02:02:48;9.80;91.90
46816;DHT22;32787;53.316;8.670;2022-12-29T02:05:29;9.80;92.00
46816;DHT22;32787;53.316;8.670;2022-12-29T02:07:56;9.80;92.20
46816;DHT22;32787;53.316;8.670;2022-12-29T02:10:24;9.80;91.90
46816;DHT22;32787;53.316;8.670;2022-12-29T02:12:51;9.80;92.00
46816;DHT22;32787;53.316;8.670;2022-12-29T02:15:20;9.70;91.80
46816;DHT22;32787;53.316;8.670;2022-12-29T02:23:35;9.90;91.80
46816;DHT22;32787;53.316;8.670;2022-12-29T02:29:17;9.90;91.50
46816;DHT22;32787;53.316;8.670;2022-12-29T02:32:03;10.00;91.30
46816;DHT22;32787;53.316;8.670;2022-12-29T02:39:58;10.10;90.90
46816;DHT22;32787;53.316;8.670;2022-12-29T02:50:37;10.10;90.50
46816;DHT22;32787;53.316;8.670;2022-12-29T02:53:11;10.20;90.30
46816;DHT22;32787;53.316;8.670;2022-12-29T02:55:38;10.30;90.20
46816;DHT22;32787;53.316;8.670;2022-12-29T03:01:17;10.40;90.00
46816;DHT22;32787;53.316;8.670;2022-12-29T03:03:53;10.30;90.00
46816;DHT22;32787;53.316;8.670;2022-12-29T03:06:44;10.30;90.00
46816;DHT22;32787;53.316;8.670;2022-12-29T03:09:28;10.40;89.80
46816;DHT22;32787;53.316;8.670;2022-12-29T03:15:03;10.40;89.60
46816;DHT22;32787;53.316;8.670;2022-12-29T03:18:10;10.50;89.50
46816;DHT22;32787;53.316;8.670;2022-12-29T03:21:00;10.40;89.50
46816;DHT22;32787;53.316;8.670;2022-12-29T03:23:28;10.50;89.40
46816;DHT22;32787;53.316;8.670;2022-12-29T03:25:58;10.50;89.40
46816;DHT22;32787;53.316;8.670;2022-12-29T03:28:35;10.40;89.50
46816;DHT22;32787;53.316;8.670;2022-12-29T03:31:03;10.50;89.40
46816;DHT22;32787;53.316;8.670;2022-12-29T03:33:30;10.40;89.40
46816;DHT22;32787;53.316;8.670;2022-12-29T03:36:01;10.50;89.10
46816;DHT22;32787;53.316;8.670;2022-12-29T03:38:45;10.50;89.20
46816;DHT22;32787;53.316;8.670;2022-12-29T03:41:16;10.40;89.20
46816;DHT22;32787;53.316;8.670;2022-12-29T03:43:43;10.50;89.40
46816;DHT22;32787;53.316;8.670;2022-12-29T03:46:08;10.50;89.30
46816;DHT22;32787;53.316;8.670;2022-12-29T03:48:34;10.40;89.20
46816;DHT22;32787;53.316;8.670;2022-12-29T03:51:00;10.50;89.10
46816;DHT22;32787;53.316;8.670;2022-12-29T03:53:25;10.40;89.30
46816;DHT22;32787;53.316;8.670;2022-12-29T03:55:51;10.50;89.10
46816;DHT22;32787;53.316;8.670;2022-12-29T03:58:17;10.50;89.40
46816;DHT22;32787;53.316;8.670;2022-12-29T04:00:42;10.40;89.90
46816;DHT22;32787;53.316;8.670;2022-12-29T04:03:08;10.30;90.50
46816;DHT22;32787;53.316;8.670;2022-12-29T04:05:33;10.30;90.80
46816;DHT22;32787;53.316;8.670;2022-12-29T04:07:59;10.20;91.10
46816;DHT22;32787;53.316;8.670;2022-12-29T04:10:25;10.30;91.30
46816;DHT22;32787;53.316;8.670;2022-12-29T04:12:50;10.20;91.40
46816;DHT22;32787;53.316;8.670;2022-12-29T04:15:16;10.20;91.50
46816;DHT22;32787;53.316;8.670;2022-12-29T04:17:42;10.20;91.80
46816;DHT22;32787;53.316;8.670;2022-12-29T04:20:08;10.00;92.10
46816;DHT22;32787;53.316;8.670;2022-12-29T04:23:05;10.20;92.30
46816;DHT22;32787;53.316;8.670;2022-12-29T04:25:32;10.10;92.50
46816;DHT22;32787;53.316;8.670;2022-12-29T04:27:58;10.10;92.60
46816;DHT22;32787;53.316;8.670;2022-12-29T04:30:23;10.10;93.00
46816;DHT22;32787;53.316;8.670;2022-12-29T04:32:49;10.10;93.00
46816;DHT22;32787;53.316;8.670;2022-12-29T04:35:15;10.10;93.10
46816;DHT22;32787;53.316;8.670;2022-12-29T04:37:40;10.10;93.10
46816;DHT22;32787;53.316;8.670;2022-12-29T04:40:06;10.10;93.20
46816;DHT22;32787;53.316;8.670;2022-12-29T04:42:32;10.20;93.10
46816;DHT22;32787;53.316;8.670;2022-12-29T04:44:58;10.20;93.00
46816;DHT22;32787;53.316;8.670;2022-12-29T04:47:23;10.20;93.00
46816;DHT22;32787;53.316;8.670;2022-12-29T04:49:49;10.20;93.00
46816;DHT22;32787;53.316;8.670;2022-12-29T04:52:15;10.30;92.90
46816;DHT22;32787;53.316;8.670;2022-12-29T04:54:40;10.20;92.90
46816;DHT22;32787;53.316;8.670;2022-12-29T04:57:06;10.20;93.00
46816;DHT22;32787;53.316;8.670;2022-12-29T04:59:31;10.20;92.90
46816;DHT22;32787;53.316;8.670;2022-12-29T05:01:57;10.20;93.00
46816;DHT22;32787;53.316;8.670;2022-12-29T05:04:23;10.20;92.90
46816;DHT22;32787;53.316;8.670;2022-12-29T05:06:48;10.20;92.70
46816;DHT22;32787;53.316;8.670;2022-12-29T05:09:14;10.20;92.70
46816;DHT22;32787;53.316;8.670;2022-12-29T05:11:39;10.20;92.60
46816;DHT22;32787;53.316;8.670;2022-12-29T05:14:05;10.10;92.50
46816;DHT22;32787;53.316;8.670;2022-12-29T05:16:31;10.10;92.40
46816;DHT22;32787;53.316;8.670;2022-12-29T05:18:56;10.00;92.40
46816;DHT22;32787;53.316;8.670;2022-12-29T05:21:22;10.10;92.30
46816;DHT22;32787;53.316;8.670;2022-12-29T05:23:47;10.10;92.30
46816;DHT22;32787;53.316;8.670;2022-12-29T05:26:13;10.20;92.10
46816;DHT22;32787;53.316;8.670;2022-12-29T05:28:38;10.20;91.80
46816;DHT22;32787;53.316;8.670;2022-12-29T05:31:04;10.30;91.60
46816;DHT22;32787;53.316;8.670;2022-12-29T05:33:31;10.30;91.10
46816;DHT22;32787;53.316;8.670;2022-12-29T05:35:56;10.40;90.90
46816;DHT22;32787;53.316;8.670;2022-12-29T05:38:22;10.40;90.60
46816;DHT22;32787;53.316;8.670;2022-12-29T05:40:48;10.40;90.40
46816;DHT22;32787;53.316;8.670;2022-12-29T05:43:14;10.40;90.40
46816;DHT22;32787;53.316;8.670;2022-12-29T05:45:39;10.40;90.40
46816;DHT22;32787;53.316;8.670;2022-12-29T05:48:05;10.50;90.10
46816;DHT22;32787;53.316;8.670;2022-12-29T05:50:30;10.40;89.80
46816;DHT22;32787;53.316;8.670;2022-12-29T05:52:56;10.60;89.80
46816;DHT22;32787;53.316;8.670;2022-12-29T05:55:22;10.40;89.70
46816;DHT22;32787;53.316;8.670;2022-12-29T05:57:47;10.40;90.00
46816;DHT22;32787;53.316;8.670;2022-12-29T06:00:13;10.50;89.80
46816;DHT22;32787;53.316;8.670;2022-12-29T06:02:39;10.50;89.50
46816;DHT22;32787;53.316;8.670;2022-12-29T06:05:05;10.60;89.60
46816;DHT22;32787;53.316;8.670;2022-12-29T06:07:31;10.60;89.20
46816;DHT22;32787;53.316;8.670;2022-12-29T06:09:56;10.60;89.40
46816;DHT22;32787;53.316;8.670;2022-12-29T06:12:22;10.60;89.20
46816;DHT22;32787;53.316;8.670;2022-12-29T06:14:47;10.40;89.30
46816;DHT22;32787;53.316;8.670;2022-12-29T06:17:13;10.30;89.30
46816;DHT22;32787;53.316;8.670;2022-12-29T06:19:39;10.20;89.40
46816;DHT22;32787;53.316;8.670;2022-12-29T06:22:04;10.10;89.90
46816;DHT22;32787;53.316;8.670;2022-12-29T06:24:30;10.10;89.80
46816;DHT22;32787;53.316;8.670;2022-12-29T06:26:56;10.10;90.10
46816;DHT22;32787;53.316;8.670;2022-12-29T06:29:21;10.00;90.20
46816;DHT22;32787;53.316;8.670;2022-12-29T06:31:47;10.20;89.70
46816;DHT22;32787;53.316;8.670;2022-12-29T06:34:14;10.20;89.70
46816;DHT22;32787;53.316;8.670;2022-12-29T06:36:40;10.10;89.60
46816;DHT22;32787;53.316;8.670;2022-12-29T06:39:05;10.10;89.80
46816;DHT22;32787;53.316;8.670;2022-12-29T06:41:31;10.10;89.90
46816;DHT22;32787;53.316;8.670;2022-12-29T06:43:57;10.10;89.80
46816;DHT22;32787;53.316;8.670;2022-12-29T06:46:22;10.10;89.60
46816;DHT22;32787;53.316;8.670;2022-12-29T06:48:48;10.10;89.70
46816;DHT22;32787;53.316;8.670;2022-12-29T06:51:14;10.00;89.50
46816;DHT22;32787;53.316;8.670;2022-12-29T06:53:39;10.00;89.60
46816;DHT22;32787;53.316;8.670;2022-12-29T06:56:05;9.90;89.60
46816;DHT22;32787;53.316;8.670;2022-12-29T06:58:31;10.00;89.40
46816;DHT22;32787;53.316;8.670;2022-12-29T07:00:56;9.90;89.30
46816;DHT22;32787;53.316;8.670;2022-12-29T07:03:22;9.90;89.50
46816;DHT22;32787;53.316;8.670;2022-12-29T07:05:47;9.90;89.40
46816;DHT22;32787;53.316;8.670;2022-12-29T07:08:13;9.90;89.60
46816;DHT22;32787;53.316;8.670;2022-12-29T07:10:39;9.80;89.60
46816;DHT22;32787;53.316;8.670;2022-12-29T07:13:05;9.80;89.60
46816;DHT22;32787;53.316;8.670;2022-12-29T07:15:33;9.80;89.60
46816;DHT22;32787;53.316;8.670;2022-12-29T07:17:59;9.80;89.70
46816;DHT22;32787;53.316;8.670;2022-12-29T07:20:24;9.80;89.60
46816;DHT22;32787;53.316;8.670;2022-12-29T07:22:50;9.80;89.60
46816;DHT22;32787;53.316;8.670;2022-12-29T07:25:15;9.80;89.60
46816;DHT22;32787;53.316;8.670;2022-12-29T07:27:41;9.80;89.60
46816;DHT22;32787;53.316;8.670;2022-12-29T07:30:07;9.80;89.70
46816;DHT22;32787;53.316;8.670;2022-12-29T07:32:34;9.80;89.60
46816;DHT22;32787;53.316;8.670;2022-12-29T07:35:00;9.80;89.30
46816;DHT22;32787;53.316;8.670;2022-12-29T07:37:25;9.80;89.20
46816;DHT22;32787;53.316;8.670;2022-12-29T07:39:51;9.80;88.90
46816;DHT22;32787;53.316;8.670;2022-12-29T07:42:16;9.70;88.80
46816;DHT22;32787;53.316;8.670;2022-12-29T07:44:42;9.80;88.80
46816;DHT22;32787;53.316;8.670;2022-12-29T07:47:08;9.90;88.70
46816;DHT22;32787;53.316;8.670;2022-12-29T07:49:33;10.00;88.30
46816;DHT22;32787;53.316;8.670;2022-12-29T07:51:59;10.00;87.90
46816;DHT22;32787;53.316;8.670;2022-12-29T07:54:24;10.10;87.70
46816;DHT22;32787;53.316;8.670;2022-12-29T07:56:50;10.20;87.50
46816;DHT22;32787;53.316;8.670;2022-12-29T07:59:16;10.20;87.30
46816;DHT22;32787;53.316;8.670;2022-12-29T08:01:42;10.20;87.40
46816;DHT22;32787;53.316;8.670;2022-12-29T08:04:08;10.20;87.40
46816;DHT22;32787;53.316;8.670;2022-12-29T08:06:34;10.30;87.00
46816;DHT22;32787;53.316;8.670;2022-12-29T08:08:59;10.20;87.00
46816;DHT22;32787;53.316;8.670;2022-12-29T08:11:26;10.30;86.90
46816;DHT22;32787;53.316;8.670;2022-12-29T08:13:52;10.30;86.80
46816;DHT22;32787;53.316;8.670;2022-12-29T08:16:17;10.30;86.80
46816;DHT22;32787;53.316;8.670;2022-12-29T08:18:43;10.30;86.60
46816;DHT22;32787;53.316;8.670;2022-12-29T08:21:09;10.30;86.70
46816;DHT22;32787;53.316;8.670;2022-12-29T08:23:35;10.30;86.80
46816;DHT22;32787;53.316;8.670;2022-12-29T08:26:03;10.30;86.50
46816;DHT22;32787;53.316;8.670;2022-12-29T08:28:29;10.30;86.10
46816;DHT22;32787;53.316;8.670;2022-12-29T08:30:57;10.30;85.60
46816;DHT22;32787;53.316;8.670;2022-12-29T08:33:23;10.30;85.90
46816;DHT22;32787;53.316;8.670;2022-12-29T08:35:49;10.20;86.20
46816;DHT22;32787;53.316;8.670;2022-12-29T08:38:15;10.10;86.50
46816;DHT22;32787;53.316;8.670;2022-12-29T08:40:40;10.20;86.80
46816;DHT22;32787;53.316;8.670;2022-12-29T08:43:06;10.20;86.70
46816;DHT22;32787;53.316;8.670;2022-12-29T08:45:32;10.20;86.80
46816;DHT22;32787;53.316;8.670;2022-12-29T08:47:58;10.30;86.30
46816;DHT22;32787;53.316;8.670;2022-12-29T08:50:23;10.30;86.10
46816;DHT22;32787;53.316;8.670;2022-12-29T08:52:49;10.40;85.60
46816;DHT22;32787;53.316;8.670;2022-12-29T08:55:14;10.40;85.90
46816;DHT22;32787;53.316;8.670;2022-12-29T08:57:40;10.40;85.80
46816;DHT22;32787;53.316;8.670;2022-12-29T09:00:06;10.40;85.60
46816;DHT22;32787;53.316;8.670;2022-12-29T09:02:32;10.40;85.30
46816;DHT22;32787;53.316;8.670;2022-12-29T09:04:58;10.30;85.20
46816;DHT22;32787;53.316;8.670;2022-12-29T09:07:24;10.30;85.30
46816;DHT22;32787;53.316;8.670;2022-12-29T09:09:50;10.30;85.30
46816;DHT22;32787;53.316;8.670;2022-12-29T09:12:17;10.30;85.20
46816;DHT22;32787;53.316;8.670;2022-12-29T09:14:43;10.30;85.00
46816;DHT22;32787;53.316;8.670;2022-12-29T09:17:10;10.40;84.60
46816;DHT22;32787;53.316;8.670;2022-12-29T09:19:54;10.40;85.00
46816;DHT22;32787;53.316;8.670;2022-12-29T09:22:20;10.40;85.00
46816;DHT22;32787;53.316;8.670;2022-12-29T09:24:46;10.40;84.70
46816;DHT22;32787;53.316;8.670;2022-12-29T09:27:12;10.40;85.00
46816;DHT22;32787;53.316;8.670;2022-12-29T09:29:37;10.40;84.50
46816;DHT22;32787;53.316;8.670;2022-12-29T09:32:03;10.40;84.90
46816;DHT22;32787;53.316;8.670;2022-12-29T09:34:29;10.40;84.90
46816;DHT22;32787;53.316;8.670;2022-12-29T09:36:55;10.40;84.50
46816;DHT22;32787;53.316;8.670;2022-12-29T09:39:22;10.30;84.70
46816;DHT22;32787;53.316;8.670;2022-12-29T09:42:23;10.30;84.80
46816;DHT22;32787;53.316;8.670;2022-12-29T09:47:43;10.30;84.60
46816;DHT22;32787;53.316;8.670;2022-12-29T09:50:24;10.40;84.60
46816;DHT22;32787;53.316;8.670;2022-12-29T09:55:34;10.40;84.50
46816;DHT22;32787;53.316;8.670;2022-12-29T09:58:10;10.40;84.20
46816;DHT22;32787;53.316;8.670;2022-12-29T10:00:48;10.40;84.10
46816;DHT22;32787;53.316;8.670;2022-12-29T10:03:18;10.40;84.40
46816;DHT22;32787;53.316;8.670;2022-12-29T10:08:25;10.30;84.40
46816;DHT22;32787;53.316;8.670;2022-12-29T10:11:02;10.30;84.20
46816;DHT22;32787;53.316;8.670;2022-12-29T10:14:17;10.30;83.90
46816;DHT22;32787;53.316;8.670;2022-12-29T10:19:37;10.10;84.10
46816;DHT22;32787;53.316;8.670;2022-12-29T10:24:56;10.10;83.80
46816;DHT22;32787;53.316;8.670;2022-12-29T10:27:23;10.20;83.70
46816;DHT22;32787;53.316;8.670;2022-12-29T10:29:54;10.30;83.40
46816;DHT22;32787;53.316;8.670;2022-12-29T10:32:29;10.40;82.80
46816;DHT22;32787;53.316;8.670;2022-12-29T10:35:25;10.40;83.10
46816;DHT22;32787;53.316;8.670;2022-12-29T10:38:00;10.40;83.20
46816;DHT22;32787;53.316;8.670;2022-12-29T10:40:36;10.50;83.10
46816;DHT22;32787;53.316;8.670;2022-12-29T10:43:12;10.40;83.00
46816;DHT22;32787;53.316;8.670;2022-12-29T10:45:42;10.50;82.90
46816;DHT22;32787;53.316;8.670;2022-12-29T10:48:23;10.60;82.40
46816;DHT22;32787;53.316;8.670;2022-12-29T10:50:50;10.60;82.30
46816;DHT22;32787;53.316;8.670;2022-12-29T10:53:24;10.50;82.40
46816;DHT22;32787;53.316;8.670;2022-12-29T10:55:51;10.40;83.00
46816;DHT22;32787;53.316;8.670;2022-12-29T10:58:18;10.40;83.40
46816;DHT22;32787;53.316;8.670;2022-12-29T11:00:50;10.40;82.80
46816;DHT22;32787;53.316;8.670;2022-12-29T11:03:51;10.40;83.00
46816;DHT22;32787;53.316;8.670;2022-12-29T11:06:25;10.30;82.60
46816;DHT22;32787;53.316;8.670;2022-12-29T11:09:31;10.30;82.60
46816;DHT22;32787;53.316;8.670;2022-12-29T11:11:58;10.30;83.40
46816;DHT22;32787;53.316;8.670;2022-12-29T11:14:29;10.20;83.30
46816;DHT22;32787;53.316;8.670;2022-12-29T11:17:00;10.20;83.10
46816;DHT22;32787;53.316;8.670;2022-12-29T11:19:31;10.20;83.20
46816;DHT22;32787;53.316;8.670;2022-12-29T11:22:21;10.10;83.50
46816;DHT22;32787;53.316;8.670;2022-12-29T11:24:48;10.20;83.30
46816;DHT22;32787;53.316;8.670;2022-12-29T11:27:17;10.20;83.40
46816;DHT22;32787;53.316;8.670;2022-12-29T11:29:45;10.30;83.20
46816;DHT22;32787;53.316;8.670;2022-12-29T11:32:25;10.20;83.70
46816;DHT22;32787;53.316;8.670;2022-12-29T11:34:51;10.10;83.80
46816;DHT22;32787;53.316;8.670;2022-12-29T11:37:40;10.10;84.10
46816;DHT22;32787;53.316;8.670;2022-12-29T11:40:19;10.20;83.60
46816;DHT22;32787;53.316;8.670;2022-12-29T11:45:26;10.30;83.80
46816;DHT22;32787;53.316;8.670;2022-12-29T11:48:01;10.30;83.60
46816;DHT22;32787;53.316;8.670;2022-12-29T11:50:33;10.30;83.60
46816;DHT22;32787;53.316;8.670;2022-12-29T11:53:24;10.40;83.50
46816;DHT22;32787;53.316;8.670;2022-12-29T11:56:02;10.30;84.10
46816;DHT22;32787;53.316;8.670;2022-12-29T11:58:34;10.00;84.90
46816;DHT22;32787;53.316;8.670;2022-12-29T12:01:26;9.90;85.50
46816;DHT22;32787;53.316;8.670;2022-12-29T12:04:06;9.90;85.60
46816;DHT22;32787;53.316;8.670;2022-12-29T12:06:37;9.80;85.40
46816;DHT22;32787;53.316;8.670;2022-12-29T12:09:23;9.80;85.50
46816;DHT22;32787;53.316;8.670;2022-12-29T12:11:52;9.90;85.30
46816;DHT22;32787;53.316;8.670;2022-12-29T12:14:38;9.90;84.90
46816;DHT22;32787;53.316;8.670;2022-12-29T12:17:20;9.90;85.10
46816;DHT22;32787;53.316;8.670;2022-12-29T12:20:05;9.90;85.00
46816;DHT22;32787;53.316;8.670;2022-12-29T12:22:38;9.90;85.70
46816;DHT22;32787;53.316;8.670;2022-12-29T12:25:18;9.90;85.80
46816;DHT22;32787;53.316;8.670;2022-12-29T12:27:51;9.90;86.30
46816;DHT22;32787;53.316;8.670;2022-12-29T12:30:21;9.80;86.90
46816;DHT22;32787;53.316;8.670;2022-12-29T12:35:46;9.80;87.40
46816;DHT22;32787;53.316;8.670;2022-12-29T12:38:21;9.90;87.00
46816;DHT22;32787;53.316;8.670;2022-12-29T12:44:01;9.90;87.20
46816;DHT22;32787;53.316;8.670;2022-12-29T12:46:45;9.90;86.80
46816;DHT22;32787;53.316;8.670;2022-12-29T12:54:42;9.90;86.80
46816;DHT22;32787;53.316;8.670;2022-12-29T12:57:18;9.90;86.70
46816;DHT22;32787;53.316;8.670;2022-12-29T12:59:56;9.90;86.20
46816;DHT22;32787;53.316;8.670;2022-12-29T13:02:46;10.00;85.90
46816;DHT22;32787;53.316;8.670;2022-12-29T13:05:33;10.10;85.90
46816;DHT22;32787;53.316;8.670;2022-12-29T13:11:28;9.80;86.90
46816;DHT22;32787;53.316;8.670;2022-12-29T13:20:02;8.90;91.40
46816;DHT22;32787;53.316;8.670;2022-12-29T13:28:32;8.20;92.10
46816;DHT22;32787;53.316;8.670;2022-12-29T13:31:16;8.10;92.10
46816;DHT22;32787;53.316;8.670;2022-12-29T13:41:49;7.90;92.40
46816;DHT22;32787;53.316;8.670;2022-12-29T13:44:39;7.90;92.40
46816;DHT22;32787;53.316;8.670;2022-12-29T13:47:25;7.90;92.40
46816;DHT22;32787;53.316;8.670;2022-12-29T13:49:53;7.90;92.60
46816;DHT22;32787;53.316;8.670;2022-12-29T13:57:41;7.90;92.60
46816;DHT22;32787;53.316;8.670;2022-12-29T14:00:19;7.90;92.60
46816;DHT22;32787;53.316;8.670;2022-12-29T14:07:56;8.00;92.80
46816;DHT22;32787;53.316;8.670;2022-12-29T14:10:45;8.00;93.00
46816;DHT22;32787;53.316;8.670;2022-12-29T14:13:16;8.10;93.00
46816;DHT22;32787;53.316;8.670;2022-12-29T14:15:45;8.20;92.80
46816;DHT22;32787;53.316;8.670;2022-12-29T14:25:56;8.30;91.50
46816;DHT22;32787;53.316;8.670;2022-12-29T14:28:28;8.30;91.30
46816;DHT22;32787;53.316;8.670;2022-12-29T14:30:57;8.30;91.10
46816;DHT22;32787;53.316;8.670;2022-12-29T14:33:23;8.20;90.70
46816;DHT22;32787;53.316;8.670;2022-12-29T14:35:52;8.30;90.70
46816;DHT22;32787;53.316;8.670;2022-12-29T14:38:26;8.20;90.50
46816;DHT22;32787;53.316;8.670;2022-12-29T14:40:53;8.20;90.50
46816;DHT22;32787;53.316;8.670;2022-12-29T14:43:39;8.20;90.30
46816;DHT22;32787;53.316;8.670;2022-12-29T14:46:07;8.10;90.30
46816;DHT22;32787;53.316;8.670;2022-12-29T14:51:01;8.10;90.00
46816;DHT22;32787;53.316;8.670;2022-12-29T14:56:13;8.10;89.80
46816;DHT22;32787;53.316;8.670;2022-12-29T14:58:54;8.10;89.80
46816;DHT22;32787;53.316;8.670;2022-12-29T15:01:44;8.10;89.80
46816;DHT22;32787;53.316;8.670;2022-12-29T15:04:18;8.20;89.80
46816;DHT22;32787;53.316;8.670;2022-12-29T15:06:44;8.20;89.30
46816;DHT22;32787;53.316;8.670;2022-12-29T15:09:30;8.30;89.20
46816;DHT22;32787;53.316;8.670;2022-12-29T15:14:47;8.20;89.00
46816;DHT22;32787;53.316;8.670;2022-12-29T15:17:32;8.00;89.10
46816;DHT22;32787;53.316;8.670;2022-12-29T15:22:44;8.00;89.20
46816;DHT22;32787;53.316;8.670;2022-12-29T15:25:17;8.10;89.60
46816;DHT22;32787;53.316;8.670;2022-12-29T15:27:51;8.00;89.90
46816;DHT22;32787;53.316;8.670;2022-12-29T15:30:18;8.00;89.90
46816;DHT22;32787;53.316;8.670;2022-12-29T15:32:45;8.00;90.30
46816;DHT22;32787;53.316;8.670;2022-12-29T15:35:32;8.00;90.30
46816;DHT22;32787;53.316;8.670;2022-12-29T15:37:59;8.10;90.40
46816;DHT22;32787;53.316;8.670;2022-12-29T15:40:32;8.20;90.30
46816;DHT22;32787;53.316;8.670;2022-12-29T15:43:27;8.20;90.00
46816;DHT22;32787;53.316;8.670;2022-12-29T15:45:55;8.10;90.00
46816;DHT22;32787;53.316;8.670;2022-12-29T15:48:23;8.00;90.00
46816;DHT22;32787;53.316;8.670;2022-12-29T15:50:49;7.90;89.90
46816;DHT22;32787;53.316;8.670;2022-12-29T15:53:21;8.00;89.90
46816;DHT22;32787;53.316;8.670;2022-12-29T15:55:51;8.00;89.70
46816;DHT22;32787;53.316;8.670;2022-12-29T15:58:24;8.00;89.90
46816;DHT22;32787;53.316;8.670;2022-12-29T16:00:55;8.00;89.70
46816;DHT22;32787;53.316;8.670;2022-12-29T16:03:24;7.90;89.80
46816;DHT22;32787;53.316;8.670;2022-12-29T16:06:05;7.90;90.00
46816;DHT22;32787;53.316;8.670;2022-12-29T16:08:36;7.80;90.00
46816;DHT22;32787;53.316;8.670;2022-12-29T16:11:27;7.90;90.30
46816;DHT22;32787;53.316;8.670;2022-12-29T16:13:52;7.80;90.10
46816;DHT22;32787;53.316;8.670;2022-12-29T16:16:21;7.80;89.90
46816;DHT22;32787;53.316;8.670;2022-12-29T16:18:50;7.90;89.80
46816;DHT22;32787;53.316;8.670;2022-12-29T16:23:53;7.80;90.10
46816;DHT22;32787;53.316;8.670;2022-12-29T16:26:21;7.90;90.20
46816;DHT22;32787;53.316;8.670;2022-12-29T16:28:50;8.10;89.90
46816;DHT22;32787;53.316;8.670;2022-12-29T16:31:20;8.10;89.50
46816;DHT22;32787;53.316;8.670;2022-12-29T16:33:47;8.20;89.60
46816;DHT22;32787;53.316;8.670;2022-12-29T16:36:32;8.20;89.50
46816;DHT22;32787;53.316;8.670;2022-12-29T16:39:20;8.30;89.50
46816;DHT22;32787;53.316;8.670;2022-12-29T16:41:50;8.20;89.50
46816;DHT22;32787;53.316;8.670;2022-12-29T16:44:17;8.30;89.50
46816;DHT22;32787;53.316;8.670;2022-12-29T16:47:05;8.40;89.40
46816;DHT22;32787;53.316;8.670;2022-12-29T16:49:34;8.40;89.10
46816;DHT22;32787;53.316;8.670;2022-12-29T16:52:00;8.40;89.10
46816;DHT22;32787;53.316;8.670;2022-12-29T16:54:35;8.40;88.90
46816;DHT22;32787;53.316;8.670;2022-12-29T16:57:02;8.30;89.10
46816;DHT22;32787;53.316;8.670;2022-12-29T16:59:40;8.30;89.20
46816;DHT22;32787;53.316;8.670;2022-12-29T17:02:19;8.20;89.40
46816;DHT22;32787;53.316;8.670;2022-12-29T17:04:45;8.20;89.60
46816;DHT22;32787;53.316;8.670;2022-12-29T17:07:22;8.30;89.50
46816;DHT22;32787;53.316;8.670;2022-12-29T17:09:48;8.30;89.20
46816;DHT22;32787;53.316;8.670;2022-12-29T17:12:23;8.30;89.40
46816;DHT22;32787;53.316;8.670;2022-12-29T17:14:52;8.50;89.00
46816;DHT22;32787;53.316;8.670;2022-12-29T17:20:20;8.50;89.00
46816;DHT22;32787;53.316;8.670;2022-12-29T17:22:47;8.50;88.80
46816;DHT22;32787;53.316;8.670;2022-12-29T17:25:15;8.60;89.10
46816;DHT22;32787;53.316;8.670;2022-12-29T17:27:49;8.60;88.80
46816;DHT22;32787;53.316;8.670;2022-12-29T17:30:20;8.50;88.40
46816;DHT22;32787;53.316;8.670;2022-12-29T17:32:51;8.40;88.60
46816;DHT22;32787;53.316;8.670;2022-12-29T17:35:19;8.30;88.90
46816;DHT22;32787;53.316;8.670;2022-12-29T17:37:45;8.30;89.00
46816;DHT22;32787;53.316;8.670;2022-12-29T17:40:17;8.40;89.20
46816;DHT22;32787;53.316;8.670;2022-12-29T17:42:45;8.40;89.00
46816;DHT22;32787;53.316;8.670;2022-12-29T17:45:22;8.50;88.80
46816;DHT22;32787;53.316;8.670;2022-12-29T17:47:49;8.40;88.90
46816;DHT22;32787;53.316;8.670;2022-12-29T17:50:25;8.40;88.60
46816;DHT22;32787;53.316;8.670;2022-12-29T17:52:53;8.40;88.70
46816;DHT22;32787;53.316;8.670;2022-12-29T17:55:21;8.30;89.20
46816;DHT22;32787;53.316;8.670;2022-12-29T17:57:47;8.50;88.70